Coloma, WI

4:49 AM CDT on June 02, 2015 (GMT -0500)
WIDOT | | Change Station
CLOSE
Current Station
Personal Weather Station
Location: Coloma, WI
Elevation: 960 ft
Nearby Weather Stations

Elev 960 ft 44.00 °N, 89.50 °W | Updated 49 minutes ago

Clear
Clear
33 °F
Feels Like 33 °F
N
0
Wind Variable Wind from West
Gusts 1.0 mph

Today
High -- | Low -- °F
--% Chance of Precip.
Yesterday
High -- | Low -- °F
Precip. -- in
5:18 AM 8:35 PM
Full, 100% visible
Pressure 30.21 in
Visibility 9.0 miles
Clouds Clear
Windchill 33 °F
Dew Point 32 °F
Humidity 93%
Rainfall in
Snow Depth Not available.
UV 0 out of 12
Pollen 7.30 out of 12
Air Quality Not available.
Flu Activity Sporadic
METAR KY50 020856Z AUTO 00000KT 9SM CLR 03/03 A3021 RMK AO2

More Conditions Fewer Conditions

Pressure 30.21 in
Visibility 9.0 miles
Clouds Clear
Windchill 33 °F
Dew Point 32 °F
Humidity 93%
Rainfall in
Snow Depth Not available.
UV 0 out of 12
Pollen 7.30 out of 12
Air Quality Not available.
Flu Activity Sporadic
METAR KY50 020856Z AUTO 00000KT 9SM CLR 03/03 A3021 RMK AO2

More Conditions Fewer Conditions

10-Day Weather Forecast

Almanac

Astronomy

Jun. 02, 2015 Rise Set
Actual Time
Civil Twilight
Nautical Twilight
Astronomical Twilight
Moon
Length of Visible Light
Length of Day
Tomorrow will be .
, % of the Moon is Illuminated

Today's Extremes

State Highs State Lows

Community

WunderPhotos

Upload Photos

1,825,901 photos uploaded!

WunderBlogs® & News

Nearby

Air Quality

  Air Quality AQ Index Pollutant
Not available.

Snow Depth

Station Depth Elevation

Earthquake Activity

City Distance Mag. Time & Date
Minimum magnitude displayed is 2.5.

Coastal Water Temperatures

Place Temperature

Stations

Nearby Weather Stations

Station Location Temp. Windchill Dew Point Humidity Wind Precip. Elev Updated Type